Time;durP1;ratioP1;P1;durP2;ratioP2;P2;SDS_P1;SDS_P2;PMS_P1;PMS_P2;Temp;Humidity;BMP_temperature;BMP_pressure;BME280_temperature;BME280_humidity;BME280_pressure;Samples;Min_cycle;Max_cycle;Signal;HPM_P1;HPM_P2
2022/06/28 00:01:23;;;;;;;13.13;2.33;;;17.40;99.90;;;;;;5047994;28;20464;-78
2022/06/28 00:04:09;;;;;;;3.20;1.97;;;17.40;99.90;;;;;;5044659;28;20465;-77
2022/06/28 00:06:55;;;;;;;12.53;2.03;;;17.20;99.90;;;;;;5048193;28;20447;-77
2022/06/28 00:09:42;;;;;;;9.47;1.80;;;17.20;99.90;;;;;;5043489;28;20833;-78
2022/06/28 00:12:28;;;;;;;9.37;2.23;;;17.20;99.90;;;;;;5052231;28;20488;-77
2022/06/28 00:18:18;;;;;;;6.80;2.70;;;17.10;99.90;;;;;;5047796;28;20491;-78
2022/06/28 00:21:06;;;;;;;5.00;2.07;;;16.80;99.90;;;;;;5043185;28;20483;-77
2022/06/28 00:23:51;;;;;;;4.93;1.60;;;16.90;99.90;;;;;;5049400;28;20519;-78
2022/06/28 00:26:38;;;;;;;8.87;2.00;;;16.80;99.90;;;;;;5046872;28;20414;-77
2022/06/28 00:29:24;;;;;;;5.33;2.23;;;16.80;99.90;;;;;;5046217;28;20805;-77
2022/06/28 00:32:10;;;;;;;3.80;1.87;;;16.70;99.90;;;;;;5045959;28;20428;-77
2022/06/28 00:34:55;;;;;;;11.27;2.37;;;16.60;99.90;;;;;;5044599;28;20439;-77
2022/06/28 00:37:41;;;;;;;5.43;2.00;;;16.40;99.90;;;;;;5049751;28;20417;-77
2022/06/28 00:40:27;;;;;;;4.57;2.20;;;16.30;99.90;;;;;;5046547;28;20467;-76
2022/06/28 00:43:14;;;;;;;8.80;2.93;;;16.30;99.90;;;;;;5044604;28;20443;-78
2022/06/28 00:46:00;;;;;;;3.47;2.03;;;16.30;99.90;;;;;;5046595;28;20414;-77
2022/06/28 00:48:46;;;;;;;9.20;2.07;;;16.40;99.90;;;;;;5037873;28;20422;-77
2022/06/28 00:51:32;;;;;;;5.40;2.20;;;16.60;99.90;;;;;;5049211;28;20500;-77
2022/06/28 00:54:18;;;;;;;9.40;2.20;;;16.50;99.90;;;;;;5048971;28;20505;-76
2022/06/28 00:57:04;;;;;;;5.90;1.80;;;16.50;99.90;;;;;;5049218;28;20414;-77
2022/06/28 00:59:51;;;;;;;4.80;2.37;;;16.50;99.90;;;;;;5040535;28;20979;-77
2022/06/28 01:02:37;;;;;;;3.60;1.80;;;16.40;99.90;;;;;;5051336;28;20421;-78
2022/06/28 01:05:22;;;;;;;12.00;1.70;;;16.30;99.90;;;;;;5040214;28;20838;-77
2022/06/28 01:08:09;;;;;;;3.73;2.27;;;16.30;99.90;;;;;;5044137;28;20422;-77
2022/06/28 01:10:55;;;;;;;10.90;1.40;;;16.20;99.90;;;;;;5039225;28;20849;-77
2022/06/28 01:13:40;;;;;;;7.67;2.47;;;16.10;99.90;;;;;;5051133;28;20888;-78
2022/06/28 01:16:28;;;;;;;7.50;2.23;;;15.90;99.90;;;;;;5053832;28;20447;-78
2022/06/28 01:19:16;;;;;;;7.50;1.50;;;15.80;99.90;;;;;;5045342;28;20904;-77
2022/06/28 01:22:03;;;;;;;2.60;2.00;;;15.70;99.90;;;;;;5043670;28;20475;-77
2022/06/28 01:24:51;;;;;;;3.10;1.87;;;15.70;99.90;;;;;;5048781;28;20453;-77
2022/06/28 01:27:38;;;;;;;8.87;2.30;;;15.70;99.90;;;;;;5047541;28;20433;-76
2022/06/28 01:30:24;;;;;;;3.30;1.53;;;15.70;99.90;;;;;;5051329;28;20437;-77
2022/06/28 01:33:10;;;;;;;9.73;1.87;;;15.70;99.90;;;;;;5048410;28;20459;-77
2022/06/28 01:35:56;;;;;;;2.87;1.80;;;15.60;99.90;;;;;;5047469;28;20451;-77
2022/06/28 01:38:42;;;;;;;6.93;1.60;;;15.70;99.90;;;;;;5044038;28;20969;-77
2022/06/28 01:41:36;;;;;;;3.53;1.50;;;15.80;99.90;;;;;;5056761;28;20475;-78
2022/06/28 01:44:22;;;;;;;5.70;2.00;;;15.90;99.90;;;;;;5054742;28;20860;-76
2022/06/28 01:47:11;;;;;;;14.77;2.30;;;15.90;99.90;;;;;;5054819;28;20455;-77
2022/06/28 01:49:56;;;;;;;8.40;2.07;;;15.80;99.90;;;;;;5051121;28;20817;-77
2022/06/28 01:52:43;;;;;;;6.57;1.50;;;15.60;99.90;;;;;;5054464;28;20462;-78
2022/06/28 01:55:29;;;;;;;3.60;1.93;;;15.60;99.90;;;;;;5053402;28;20526;-76
2022/06/28 01:58:16;;;;;;;6.93;2.10;;;15.70;99.90;;;;;;5047699;28;20804;-76
2022/06/28 02:01:02;;;;;;;4.10;1.50;;;15.80;99.90;;;;;;5052434;28;20516;-77
2022/06/28 02:03:49;;;;;;;9.33;1.80;;;15.90;99.90;;;;;;5051675;28;20445;-77
2022/06/28 02:06:35;;;;;;;3.43;1.83;;;15.70;99.90;;;;;;5049018;28;20491;-76
2022/06/28 02:09:21;;;;;;;4.30;1.70;;;15.60;99.90;;;;;;5052791;28;20447;-77
2022/06/28 02:12:07;;;;;;;7.60;1.73;;;15.40;99.90;;;;;;5051453;28;20459;-77
2022/06/28 02:14:54;;;;;;;3.73;2.00;;;15.20;99.90;;;;;;5047083;28;20447;-77
2022/06/28 02:17:40;;;;;;;6.53;2.83;;;15.10;99.90;;;;;;5047738;28;20848;-78
2022/06/28 02:20:26;;;;;;;14.30;1.90;;;15.20;99.90;;;;;;5049277;28;20454;-78
2022/06/28 02:23:12;;;;;;;6.97;1.77;;;15.30;99.90;;;;;;5051428;28;20437;-77
2022/06/28 02:25:58;;;;;;;4.90;1.83;;;15.30;99.90;;;;;;5050927;28;20474;-77
2022/06/28 02:28:43;;;;;;;2.80;1.93;;;15.20;99.90;;;;;;5046136;28;20427;-77
2022/06/28 02:31:31;;;;;;;1.83;1.30;;;15.20;99.90;;;;;;5052550;28;20481;-77
2022/06/28 02:40:22;;;;;;;4.23;1.93;;;15.40;99.90;;;;;;5051114;28;20445;-76
2022/06/28 02:43:08;;;;;;;6.67;1.70;;;15.20;99.90;;;;;;5049996;28;20929;-78
2022/06/28 02:45:54;;;;;;;4.57;1.97;;;15.10;99.90;;;;;;5046272;28;20466;-77
2022/06/28 02:48:41;;;;;;;3.70;1.50;;;15.10;99.90;;;;;;5046570;28;20413;-77
2022/06/28 02:51:26;;;;;;;3.90;1.53;;;15.20;99.90;;;;;;5048019;28;21197;-78
2022/06/28 02:54:12;;;;;;;2.70;1.77;;;15.20;99.90;;;;;;5050862;28;20951;-77
2022/06/28 02:56:58;;;;;;;6.80;2.07;;;15.20;99.90;;;;;;5044993;28;20430;-77
2022/06/28 02:59:44;;;;;;;2.30;1.57;;;15.10;99.90;;;;;;5049306;28;20590;-77
2022/06/28 03:02:30;;;;;;;3.50;2.10;;;14.90;99.90;;;;;;5052027;28;20437;-77
2022/06/28 03:05:19;;;;;;;4.17;1.80;;;14.70;99.90;;;;;;5049382;28;20454;-77
2022/06/28 03:08:05;;;;;;;3.03;1.73;;;14.80;99.90;;;;;;5043306;28;20439;-77
2022/06/28 03:10:50;;;;;;;6.50;2.07;;;14.60;99.90;;;;;;5050972;28;20453;-77
2022/06/28 03:13:36;;;;;;;3.70;1.77;;;14.60;99.90;;;;;;5052907;28;20435;-77
2022/06/28 03:16:22;;;;;;;4.10;1.90;;;14.50;99.90;;;;;;5044721;28;20465;-77
2022/06/28 03:19:08;;;;;;;4.90;2.17;;;14.40;99.90;;;;;;5045362;28;20941;-77
2022/06/28 03:22:08;;;;;;;5.90;2.30;;;14.40;99.90;;;;;;5097788;27;20639;-77
2022/06/28 03:24:54;;;;;;;4.23;1.90;;;14.40;99.90;;;;;;5082354;28;20453;-77
2022/06/28 03:27:40;;;;;;;4.03;2.27;;;14.40;99.90;;;;;;5073638;28;20548;-77
2022/06/28 03:30:25;;;;;;;11.17;2.63;;;14.50;99.90;;;;;;5068622;28;20987;-77
2022/06/28 03:33:11;;;;;;;2.77;1.90;;;14.70;99.90;;;;;;5071840;28;20447;-77
2022/06/28 03:35:57;;;;;;;4.70;1.63;;;14.80;99.90;;;;;;5073828;28;20473;-77
2022/06/28 03:38:44;;;;;;;6.93;1.60;;;14.90;99.90;;;;;;5076557;28;20942;-77
2022/06/28 03:41:29;;;;;;;5.83;1.90;;;15.00;99.90;;;;;;5080530;28;20480;-77
2022/06/28 03:44:15;;;;;;;3.53;2.20;;;15.00;99.90;;;;;;5073268;28;20466;-77
2022/06/28 03:47:01;;;;;;;4.20;1.80;;;15.10;99.90;;;;;;5068336;28;21077;-77
2022/06/28 03:49:47;;;;;;;5.87;2.00;;;14.90;99.90;;;;;;5072199;28;20420;-77
2022/06/28 03:52:33;;;;;;;4.73;2.93;;;14.70;99.90;;;;;;5079135;28;20937;-77
2022/06/28 03:55:20;;;;;;;5.10;2.37;;;14.50;99.90;;;;;;5069109;28;20417;-77
2022/06/28 03:58:06;;;;;;;8.73;1.70;;;14.50;99.90;;;;;;5073336;28;20421;-76
2022/06/28 04:00:52;;;;;;;4.07;1.67;;;14.50;99.90;;;;;;5074531;28;20443;-77
2022/06/28 04:03:38;;;;;;;8.43;2.23;;;14.50;99.90;;;;;;5076024;28;20450;-77
2022/06/28 04:06:24;;;;;;;6.40;2.10;;;14.60;99.90;;;;;;5069229;28;20504;-77
2022/06/28 04:09:10;;;;;;;5.83;1.93;;;14.70;99.90;;;;;;5075004;28;20428;-76
2022/06/28 04:11:57;;;;;;;6.13;2.10;;;14.90;99.90;;;;;;5074920;28;20441;-77
2022/06/28 04:14:43;;;;;;;3.73;1.60;;;14.90;99.90;;;;;;5082092;28;20432;-77
2022/06/28 04:17:28;;;;;;;3.30;1.93;;;14.90;99.90;;;;;;5086833;28;20408;-77
2022/06/28 04:20:14;;;;;;;5.50;1.80;;;14.80;99.90;;;;;;5092024;28;20534;-77
2022/06/28 04:23:00;;;;;;;3.60;1.93;;;14.80;99.90;;;;;;5078757;28;20424;-77
2022/06/28 04:25:46;;;;;;;4.63;1.50;;;14.90;99.90;;;;;;5071202;28;20420;-77
2022/06/28 04:28:33;;;;;;;6.60;2.17;;;15.00;99.90;;;;;;5070269;28;20786;-77
2022/06/28 04:31:19;;;;;;;4.60;1.80;;;15.10;99.90;;;;;;5068951;28;20460;-77
2022/06/28 04:34:05;;;;;;;6.33;2.47;;;15.20;99.90;;;;;;5057810;28;20442;-76
2022/06/28 04:36:50;;;;;;;5.57;2.40;;;15.30;99.90;;;;;;5056270;28;20454;-77
2022/06/28 04:39:36;;;;;;;4.67;3.30;;;15.30;99.90;;;;;;5057829;28;20496;-77
2022/06/28 04:42:22;;;;;;;6.77;1.93;;;15.30;99.90;;;;;;5055618;28;20441;-77
2022/06/28 04:45:09;;;;;;;8.37;2.53;;;15.20;99.90;;;;;;5058437;28;20455;-77
2022/06/28 04:47:55;;;;;;;3.33;2.00;;;15.20;99.90;;;;;;5063281;28;20425;-77
2022/06/28 04:50:41;;;;;;;5.77;2.00;;;15.20;99.90;;;;;;5062302;28;20789;-77
2022/06/28 04:53:27;;;;;;;6.90;2.27;;;15.20;99.90;;;;;;5065056;28;20949;-77
2022/06/28 04:56:13;;;;;;;6.87;2.60;;;15.30;99.90;;;;;;5056386;28;20421;-76
2022/06/28 04:58:59;;;;;;;5.10;2.17;;;15.50;99.90;;;;;;5063818;28;20446;-77
2022/06/28 05:01:46;;;;;;;4.60;2.47;;;15.70;99.90;;;;;;5062887;28;20449;-77
2022/06/28 05:04:32;;;;;;;8.37;2.70;;;15.80;99.90;;;;;;5060308;28;20465;-77
2022/06/28 05:07:17;;;;;;;5.60;2.53;;;15.90;99.90;;;;;;5064730;28;20879;-77
2022/06/28 05:10:04;;;;;;;3.50;2.63;;;16.00;99.90;;;;;;5061304;28;20443;-77
2022/06/28 05:12:50;;;;;;;6.20;2.57;;;16.10;99.90;;;;;;5063789;28;20562;-77
2022/06/28 05:15:35;;;;;;;12.20;3.10;;;16.20;99.90;;;;;;5058050;28;20804;-77
2022/06/28 05:18:23;;;;;;;6.33;2.90;;;16.30;99.90;;;;;;5068170;28;20844;-77
2022/06/28 05:21:08;;;;;;;4.33;2.20;;;16.40;99.90;;;;;;5073618;22;20491;-75
2022/06/28 05:23:54;;;;;;;3.97;2.10;;;16.50;99.90;;;;;;5032527;28;20423;-73
2022/06/28 05:26:40;;;;;;;4.67;3.00;;;16.60;99.90;;;;;;5031412;28;20507;-75
2022/06/28 05:29:25;;;;;;;4.53;2.27;;;16.60;99.90;;;;;;5033203;28;20426;-75
2022/06/28 05:32:11;;;;;;;2.97;1.93;;;16.60;99.90;;;;;;5020023;28;20440;-75
2022/06/28 05:34:58;;;;;;;4.50;2.47;;;16.70;99.90;;;;;;5010630;28;20507;-74
2022/06/28 05:37:44;;;;;;;9.87;2.93;;;16.80;99.90;;;;;;5015076;28;20424;-75
2022/06/28 05:40:29;;;;;;;5.33;2.20;;;16.80;99.90;;;;;;5014710;28;21013;-75
2022/06/28 05:43:15;;;;;;;4.20;2.73;;;16.90;99.90;;;;;;5010650;28;20432;-74
2022/06/28 05:46:00;;;;;;;3.33;2.30;;;16.90;99.90;;;;;;5011299;28;20556;-75
2022/06/28 05:48:45;;;;;;;5.57;2.00;;;16.90;99.90;;;;;;5020613;28;20442;-75
2022/06/28 05:51:32;;;;;;;14.63;2.40;;;17.00;99.90;;;;;;5014642;28;20578;-74
2022/06/28 05:54:18;;;;;;;6.33;2.70;;;17.00;99.90;;;;;;5011341;28;20445;-75
2022/06/28 05:57:05;;;;;;;3.73;2.10;;;17.10;99.90;;;;;;5011758;28;20495;-75
2022/06/28 05:59:50;;;;;;;3.10;2.40;;;17.20;99.90;;;;;;5015067;28;20441;-75
2022/06/28 06:02:36;;;;;;;2.83;2.27;;;17.30;99.90;;;;;;5013849;28;20485;-75
2022/06/28 06:05:22;;;;;;;6.97;3.40;;;17.30;99.90;;;;;;5009904;28;20524;-75
2022/06/28 06:08:09;;;;;;;5.87;2.60;;;17.50;99.90;;;;;;5010125;28;20472;-75
2022/06/28 06:10:55;;;;;;;3.47;2.30;;;17.60;99.90;;;;;;5014773;28;20449;-75
2022/06/28 06:13:40;;;;;;;9.90;2.77;;;17.60;99.90;;;;;;5011467;28;20452;-75
2022/06/28 06:16:26;;;;;;;9.50;2.50;;;17.70;99.90;;;;;;5013169;28;20424;-74
2022/06/28 06:19:11;;;;;;;3.80;2.57;;;17.80;99.90;;;;;;5012817;28;20416;-75
2022/06/28 06:21:57;;;;;;;7.50;2.60;;;17.90;99.90;;;;;;5013293;28;20515;-74
2022/06/28 06:24:45;;;;;;;4.60;2.50;;;18.00;99.90;;;;;;5008968;28;20512;-75
2022/06/28 06:27:30;;;;;;;6.60;3.00;;;18.10;99.90;;;;;;5012352;28;20920;-74
2022/06/28 06:30:16;;;;;;;4.03;2.40;;;18.10;99.90;;;;;;5010954;28;20540;-74
2022/06/28 06:33:01;;;;;;;7.80;1.97;;;18.20;99.90;;;;;;5014371;28;20549;-73
2022/06/28 06:35:47;;;;;;;7.73;2.63;;;18.40;99.90;;;;;;5012610;28;20512;-74
2022/06/28 06:38:33;;;;;;;7.50;2.23;;;18.40;99.90;;;;;;5013082;28;20492;-74
2022/06/28 06:41:20;;;;;;;3.17;2.13;;;18.60;99.90;;;;;;5013224;28;20472;-74
2022/06/28 06:44:06;;;;;;;3.87;2.20;;;18.70;99.90;;;;;;5012029;28;20526;-74
2022/06/28 06:46:52;;;;;;;9.30;2.30;;;18.70;99.90;;;;;;5016245;28;20440;-75
2022/06/28 06:49:38;;;;;;;4.73;2.20;;;18.90;99.90;;;;;;5014770;28;20969;-74
2022/06/28 06:52:23;;;;;;;3.73;2.00;;;19.00;99.90;;;;;;5015547;28;20469;-74
2022/06/28 06:55:10;;;;;;;3.10;1.87;;;19.10;99.90;;;;;;5009044;28;20449;-72
2022/06/28 06:57:57;;;;;;;4.70;2.00;;;19.10;99.90;;;;;;5014777;28;20449;-74
2022/06/28 07:00:43;;;;;;;3.70;2.33;;;19.10;99.90;;;;;;5011118;28;20454;-74
2022/06/28 07:03:28;;;;;;;3.80;1.90;;;19.20;99.90;;;;;;5010267;28;20441;-74
2022/06/28 07:06:15;;;;;;;3.20;2.00;;;19.40;99.90;;;;;;5012543;28;20524;-74
2022/06/28 07:09:00;;;;;;;2.03;1.63;;;19.40;99.90;;;;;;5014649;28;20441;-75
2022/06/28 07:11:46;;;;;;;2.97;1.83;;;19.50;99.90;;;;;;5015210;28;20583;-74
2022/06/28 07:14:33;;;;;;;6.50;2.07;;;19.50;99.90;;;;;;5010873;28;20465;-74
2022/06/28 07:17:19;;;;;;;3.83;2.03;;;19.60;99.90;;;;;;5012997;28;20440;-74
2022/06/28 07:20:06;;;;;;;3.53;1.90;;;19.70;99.90;;;;;;5013029;28;20445;-74
2022/06/28 07:22:51;;;;;;;2.67;1.20;;;19.70;99.90;;;;;;5011650;28;20526;-74
2022/06/28 07:25:37;;;;;;;7.40;1.80;;;19.80;99.90;;;;;;5010363;28;20429;-74
2022/06/28 07:28:23;;;;;;;2.83;1.40;;;19.80;99.90;;;;;;5012182;28;20457;-74
2022/06/28 07:31:10;;;;;;;2.73;1.43;;;19.90;99.90;;;;;;5010529;28;20469;-72
2022/06/28 07:33:56;;;;;;;3.60;1.30;;;20.00;99.60;;;;;;5008207;28;20506;-73
2022/06/28 07:36:42;;;;;;;2.10;1.10;;;20.10;97.50;;;;;;5012287;28;20423;-75
2022/06/28 07:39:27;;;;;;;2.90;1.50;;;20.10;90.80;;;;;;5013831;28;20457;-74
2022/06/28 07:42:13;;;;;;;2.97;1.60;;;20.20;92.10;;;;;;5011671;28;20481;-73
2022/06/28 07:44:59;;;;;;;5.20;1.73;;;20.30;93.70;;;;;;5008165;28;20827;-75
2022/06/28 07:47:47;;;;;;;3.63;1.60;;;20.40;93.40;;;;;;5008478;28;20788;-74
2022/06/28 07:53:37;;;;;;;3.20;1.10;;;20.50;77.80;;;;;;5009654;28;20498;-73
2022/06/28 07:56:23;;;;;;;2.40;1.87;;;20.50;83.40;;;;;;5013716;28;20441;-75
2022/06/28 07:59:08;;;;;;;2.40;1.33;;;20.60;84.40;;;;;;5011810;28;20818;-72
2022/06/28 08:01:54;;;;;;;2.20;1.10;;;20.50;73.20;;;;;;5007200;28;20471;-73
2022/06/28 08:04:41;;;;;;;2.23;1.20;;;20.50;77.00;;;;;;5006899;28;20441;-72
2022/06/28 08:07:27;;;;;;;3.30;1.23;;;20.60;74.60;;;;;;5014434;28;20461;-72
2022/06/28 08:10:13;;;;;;;2.40;1.20;;;20.80;76.40;;;;;;5015896;28;20460;-73
2022/06/28 08:12:59;;;;;;;3.33;1.30;;;20.90;75.30;;;;;;5010256;28;20465;-72
2022/06/28 08:15:45;;;;;;;2.70;1.40;;;20.90;71.90;;;;;;5014555;28;20556;-73
2022/06/28 08:18:30;;;;;;;4.13;1.50;;;20.90;74.00;;;;;;5013685;28;21005;-72
2022/06/28 08:21:17;;;;;;;2.80;1.70;;;21.00;75.40;;;;;;5016045;28;21040;-72
2022/06/28 08:24:03;;;;;;;3.60;2.03;;;21.10;74.70;;;;;;5007539;28;20653;-72
2022/06/28 08:26:49;;;;;;;5.23;1.87;;;21.10;71.40;;;;;;5012493;28;20813;-71
2022/06/28 08:29:35;;;;;;;3.30;1.47;;;21.20;72.20;;;;;;5013330;28;20498;-72
2022/06/28 08:32:23;;;;;;;2.30;1.30;;;21.30;78.10;;;;;;5010977;28;20469;-72
2022/06/28 08:35:09;;;;;;;4.77;1.07;;;21.40;72.50;;;;;;5010533;28;20608;-71
2022/06/28 08:37:56;;;;;;;2.43;1.17;;;21.50;71.40;;;;;;5009844;28;20424;-70
2022/06/28 08:40:44;;;;;;;2.30;1.33;;;21.50;67.40;;;;;;5011638;28;20815;-73
2022/06/28 08:43:32;;;;;;;2.60;1.20;;;21.60;68.70;;;;;;5009079;28;21010;-72
2022/06/28 08:46:18;;;;;;;2.30;1.07;;;21.70;67.80;;;;;;5014278;28;20437;-72
2022/06/28 08:49:05;;;;;;;2.47;1.27;;;21.70;69.50;;;;;;5008561;28;20585;-72
2022/06/28 08:51:52;;;;;;;2.57;1.27;;;21.90;63.50;;;;;;5011065;28;20466;-71
2022/06/28 08:54:40;;;;;;;3.53;1.03;;;21.80;60.10;;;;;;5012710;28;20955;-73
2022/06/28 08:57:30;;;;;;;4.00;1.47;;;21.60;59.50;;;;;;5017121;28;20445;-72
2022/06/28 09:00:16;;;;;;;4.53;1.40;;;21.70;64.60;;;;;;5011961;28;20450;-71
2022/06/28 09:03:02;;;;;;;2.57;1.00;;;21.70;61.40;;;;;;5008596;28;20555;-72
2022/06/28 09:05:48;;;;;;;2.23;1.13;;;21.80;63.40;;;;;;5013538;28;20531;-72
2022/06/28 09:08:34;;;;;;;1.97;1.17;;;21.90;65.80;;;;;;5012928;28;20441;-72
2022/06/28 09:11:21;;;;;;;3.07;1.20;;;22.00;65.00;;;;;;5007198;28;20997;-72
2022/06/28 09:14:25;;;;;;;3.53;1.50;;;22.20;55.90;;;;;;5013687;28;20445;-73
2022/06/28 09:17:23;;;;;;;1.60;1.00;;;22.30;52.50;;;;;;5009366;28;20453;-72
2022/06/28 09:20:11;;;;;;;2.33;1.20;;;22.30;48.90;;;;;;5011960;28;20966;-73
2022/06/28 09:22:57;;;;;;;3.10;1.00;;;22.40;50.30;;;;;;5000964;28;20561;-74
2022/06/28 09:25:47;;;;;;;2.67;0.93;;;22.40;51.30;;;;;;5010650;28;20449;-74
2022/06/28 09:28:36;;;;;;;2.20;0.90;;;22.50;49.50;;;;;;5007531;28;20446;-72
2022/06/28 09:31:23;;;;;;;2.73;1.43;;;22.60;53.20;;;;;;5008219;28;20941;-74
2022/06/28 09:34:09;;;;;;;2.20;1.10;;;22.70;52.50;;;;;;5000445;28;20447;-72
2022/06/28 09:36:58;;;;;;;3.07;1.50;;;22.70;44.70;;;;;;5005514;28;20429;-72
2022/06/28 09:39:48;;;;;;;2.20;1.13;;;22.70;48.30;;;;;;5014424;28;20578;-73
2022/06/28 09:42:33;;;;;;;3.97;1.37;;;22.80;48.50;;;;;;5003220;28;20473;-72
2022/06/28 09:45:20;;;;;;;3.77;1.50;;;22.80;49.20;;;;;;5005833;28;20588;-73
2022/06/28 09:48:07;;;;;;;5.87;1.37;;;22.90;53.60;;;;;;5007888;28;20449;-73
2022/06/28 09:50:58;;;;;;;3.17;1.80;;;23.00;45.60;;;;;;5004006;28;20493;-72
2022/06/28 09:53:45;;;;;;;2.50;1.57;;;23.00;48.60;;;;;;5003488;28;20540;-73
2022/06/28 09:56:35;;;;;;;3.33;1.53;;;23.10;45.30;;;;;;5012362;28;20475;-74
2022/06/28 09:59:22;;;;;;;4.93;1.87;;;23.20;53.00;;;;;;5012978;28;20438;-73
2022/06/28 10:02:15;;;;;;;3.13;1.40;;;23.20;45.00;;;;;;5007864;28;21122;-75
2022/06/28 10:05:01;;;;;;;2.03;1.13;;;23.30;43.10;;;;;;5004418;28;20543;-74
2022/06/28 10:07:48;;;;;;;2.00;1.10;;;23.30;41.00;;;;;;5000727;28;20457;-75
2022/06/28 10:10:34;;;;;;;3.07;1.50;;;23.40;43.20;;;;;;5018008;28;20962;-73
2022/06/28 10:16:34;;;;;;;5.00;1.30;;;23.40;40.90;;;;;;5006354;28;20516;-74
2022/06/28 10:19:23;;;;;;;3.07;1.53;;;23.40;40.80;;;;;;5012371;28;21314;-75
2022/06/28 10:22:10;;;;;;;2.27;1.37;;;23.50;43.30;;;;;;5011389;28;20886;-73
2022/06/28 10:24:58;;;;;;;2.40;1.37;;;23.50;40.10;;;;;;5014211;28;20425;-75
2022/06/28 10:27:49;;;;;;;2.63;1.10;;;23.50;41.30;;;;;;5007780;28;20425;-74
2022/06/28 10:30:35;;;;;;;3.80;1.43;;;23.60;41.00;;;;;;5001890;28;20461;-74
2022/06/28 10:33:41;;;;;;;2.90;1.20;;;23.60;41.20;;;;;;5007347;28;20422;-73
2022/06/28 10:36:31;;;;;;;4.90;1.43;;;23.70;43.50;;;;;;5008500;28;20473;-74
2022/06/28 10:39:23;;;;;;;2.50;1.30;;;23.80;43.60;;;;;;5009492;28;20480;-73
2022/06/28 10:42:14;;;;;;;2.80;1.60;;;24.00;40.60;;;;;;5001657;28;20469;-73
2022/06/28 10:44:59;;;;;;;2.67;1.60;;;24.00;42.00;;;;;;5009314;28;20455;-74
2022/06/28 10:48:09;;;;;;;2.43;1.17;;;24.10;41.30;;;;;;5005467;28;20453;-74
2022/06/28 10:50:59;;;;;;;2.00;1.10;;;24.10;40.60;;;;;;5004501;28;20476;-73
2022/06/28 10:56:39;;;;;;;3.47;1.33;;;24.10;39.90;;;;;;5096859;27;20575;-75
2022/06/28 10:59:36;;;;;;;2.57;1.00;;;24.30;39.20;;;;;;5088323;28;20418;-73
2022/06/28 11:02:22;;;;;;;4.13;2.27;;;24.30;37.90;;;;;;5071184;28;20925;-74
2022/06/28 11:05:09;;;;;;;2.10;1.07;;;24.40;39.30;;;;;;5080363;28;20422;-72
2022/06/28 11:07:58;;;;;;;2.03;1.17;;;24.40;38.10;;;;;;5073634;28;20430;-72
2022/06/28 11:11:02;;;;;;;3.30;1.37;;;24.50;38.50;;;;;;5071154;28;20465;-71
2022/06/28 11:14:09;;;;;;;4.10;1.40;;;24.70;37.20;;;;;;5081163;28;20425;-71
2022/06/28 11:16:55;;;;;;;2.07;1.10;;;24.70;36.80;;;;;;5077311;28;20529;-72
2022/06/28 11:19:50;;;;;;;3.03;1.10;;;24.80;34.20;;;;;;5071591;28;20979;-70
2022/06/28 11:22:40;;;;;;;4.00;1.60;;;24.90;35.90;;;;;;5063230;22;20492;-73
2022/06/28 11:27:19;;;;;;;4.90;1.60;;;24.90;34.70;;;;;;5047789;28;20427;-73
2022/06/28 11:28:52;;;;;;;2.53;0.90;;;25.00;35.50;;;;;;5047550;28;20908;-73
2022/06/28 11:31:43;;;;;;;2.30;1.17;;;25.10;32.70;;;;;;5037561;28;20571;-73
2022/06/28 11:34:29;;;;;;;2.00;0.90;;;25.20;33.30;;;;;;5025270;28;20576;-73
2022/06/28 11:37:14;;;;;;;2.53;1.30;;;25.10;32.20;;;;;;5026655;28;20456;-73
2022/06/28 11:40:02;;;;;;;3.30;1.10;;;25.20;30.70;;;;;;5022148;28;20791;-73
2022/06/28 11:42:59;;;;;;;3.50;1.10;;;25.30;31.60;;;;;;5019375;28;20974;-73
2022/06/28 11:45:47;;;;;;;2.07;1.23;;;25.30;33.20;;;;;;5024376;28;20516;-73
2022/06/28 11:48:34;;;;;;;2.20;1.07;;;25.40;30.90;;;;;;5025831;28;20539;-73
2022/06/28 11:51:26;;;;;;;2.00;1.03;;;25.40;30.90;;;;;;5022595;28;20455;-73
2022/06/28 11:54:15;;;;;;;2.80;1.37;;;25.50;31.00;;;;;;5042214;28;20809;-73
2022/06/28 11:57:14;;;;;;;3.53;1.60;;;25.50;30.90;;;;;;5024596;28;20777;-73
2022/06/28 12:00:02;;;;;;;6.77;1.50;;;25.70;30.50;;;;;;5019350;28;20456;-73
2022/06/28 12:02:51;;;;;;;4.80;1.20;;;25.70;30.00;;;;;;5019185;28;20962;-73
2022/06/28 12:05:39;;;;;;;3.60;1.33;;;25.80;31.20;;;;;;5026328;28;20417;-73
2022/06/28 12:08:43;;;;;;;4.87;1.30;;;25.80;29.40;;;;;;5008302;28;20925;-73
2022/06/28 12:11:32;;;;;;;1.90;0.90;;;25.90;27.80;;;;;;5009614;28;20507;-73
2022/06/28 12:14:20;;;;;;;1.90;1.00;;;25.90;28.90;;;;;;5012224;28;20549;-73
2022/06/28 12:17:05;;;;;;;4.80;1.10;;;26.00;28.10;;;;;;5013398;28;20444;-75
2022/06/28 12:19:51;;;;;;;8.10;1.40;;;26.10;27.80;;;;;;4999930;28;20664;-74
2022/06/28 12:22:38;;;;;;;3.70;1.67;;;26.20;27.20;;;;;;5005770;28;20453;-74
2022/06/28 12:25:24;;;;;;;4.40;1.50;;;26.30;28.00;;;;;;5013368;28;20554;-74
2022/06/28 12:28:10;;;;;;;3.80;1.30;;;26.30;27.60;;;;;;5011173;28;20425;-73
2022/06/28 12:30:55;;;;;;;2.70;1.13;;;26.30;27.40;;;;;;5010830;28;20465;-73
2022/06/28 12:33:42;;;;;;;2.40;1.27;;;26.30;26.60;;;;;;5013605;28;20440;-73
2022/06/28 12:36:27;;;;;;;4.93;1.20;;;26.30;26.40;;;;;;5005108;28;20484;-74
2022/06/28 12:39:14;;;;;;;3.10;1.13;;;26.40;27.60;;;;;;5002685;28;20477;-73
2022/06/28 12:42:00;;;;;;;3.83;1.23;;;26.50;27.30;;;;;;5009884;28;21110;-73
2022/06/28 12:44:46;;;;;;;8.87;1.30;;;26.70;29.00;;;;;;5006119;28;20441;-73
2022/06/28 12:47:33;;;;;;;6.80;1.23;;;26.80;28.70;;;;;;5009750;28;20536;-73
2022/06/28 12:50:18;;;;;;;2.03;1.10;;;26.90;29.00;;;;;;5004644;28;20915;-73
2022/06/28 12:53:04;;;;;;;3.73;1.50;;;27.00;29.40;;;;;;5008708;28;20515;-73
2022/06/28 12:55:51;;;;;;;4.03;1.30;;;27.10;26.40;;;;;;5009076;28;20560;-74
2022/06/28 12:58:37;;;;;;;5.10;1.20;;;27.10;27.60;;;;;;5005252;28;21480;-73
2022/06/28 13:01:23;;;;;;;4.07;1.53;;;27.10;25.40;;;;;;5009314;28;20481;-73
2022/06/28 13:04:09;;;;;;;3.70;1.30;;;27.30;27.70;;;;;;5007693;28;20453;-74
2022/06/28 13:06:55;;;;;;;4.27;2.00;;;27.40;25.30;;;;;;5010082;28;20445;-73
2022/06/28 13:09:40;;;;;;;3.03;1.10;;;27.40;26.50;;;;;;5005768;28;20460;-74
2022/06/28 13:12:27;;;;;;;3.50;1.30;;;27.50;26.90;;;;;;5010749;28;20567;-74
2022/06/28 13:15:13;;;;;;;5.00;1.20;;;27.60;25.60;;;;;;5006442;28;20527;-73
2022/06/28 13:17:59;;;;;;;5.23;1.53;;;27.70;26.50;;;;;;5010462;28;20576;-74
2022/06/28 13:20:45;;;;;;;2.47;1.20;;;27.70;25.90;;;;;;5014252;28;20993;-74
2022/06/28 13:23:31;;;;;;;2.93;1.20;;;27.70;26.20;;;;;;5010231;28;20960;-73
2022/06/28 13:26:17;;;;;;;4.20;1.43;;;27.90;26.60;;;;;;5007774;28;20459;-74
2022/06/28 13:29:04;;;;;;;3.33;0.70;;;27.90;27.70;;;;;;4999889;28;21024;-74
2022/06/28 13:31:50;;;;;;;1.93;0.90;;;28.00;24.80;;;;;;5008835;28;20596;-73
2022/06/28 13:34:35;;;;;;;6.67;0.90;;;27.90;26.30;;;;;;5007980;28;20800;-74
2022/06/28 13:37:21;;;;;;;6.13;1.33;;;27.80;25.10;;;;;;5010069;28;20441;-73
2022/06/28 13:40:08;;;;;;;2.13;1.13;;;27.80;26.60;;;;;;5007165;28;20449;-74
2022/06/28 13:42:55;;;;;;;4.93;1.40;;;27.80;26.70;;;;;;5009037;28;20465;-73
2022/06/28 13:45:42;;;;;;;5.70;1.33;;;27.80;25.30;;;;;;5008976;28;20432;-73
2022/06/28 13:48:28;;;;;;;2.97;1.00;;;27.90;25.70;;;;;;5005405;28;21078;-74
2022/06/28 13:51:13;;;;;;;5.43;1.43;;;27.90;25.30;;;;;;5008336;28;20449;-73
2022/06/28 13:53:59;;;;;;;5.13;1.20;;;28.00;25.90;;;;;;5010091;28;20810;-73
2022/06/28 13:56:45;;;;;;;3.53;1.13;;;27.90;25.50;;;;;;5009478;28;20598;-73
2022/06/28 13:59:30;;;;;;;4.27;1.63;;;27.90;26.00;;;;;;5005446;28;20464;-74
2022/06/28 14:02:17;;;;;;;3.73;1.60;;;28.00;26.10;;;;;;5007394;28;20884;-73
2022/06/28 14:05:04;;;;;;;3.33;1.20;;;28.00;25.10;;;;;;5005716;28;20453;-74
2022/06/28 14:07:50;;;;;;;5.10;1.00;;;28.10;25.90;;;;;;5003916;28;20445;-73
2022/06/28 14:10:35;;;;;;;2.50;1.23;;;28.30;24.50;;;;;;5010849;28;20465;-73
2022/06/28 14:13:22;;;;;;;8.23;1.80;;;28.30;23.90;;;;;;5009030;28;20596;-74
2022/06/28 14:16:08;;;;;;;2.80;1.20;;;28.30;23.90;;;;;;5008138;28;20825;-74
2022/06/28 14:18:55;;;;;;;4.67;1.47;;;28.40;25.10;;;;;;5001035;28;20812;-73
2022/06/28 14:21:41;;;;;;;4.13;1.30;;;28.30;25.80;;;;;;5005020;28;20841;-73
2022/06/28 14:24:27;;;;;;;2.10;1.00;;;28.30;25.20;;;;;;5006599;28;20447;-74
2022/06/28 14:27:12;;;;;;;2.80;1.40;;;28.40;24.40;;;;;;5008873;28;20477;-73
2022/06/28 14:29:58;;;;;;;2.90;1.00;;;28.50;26.30;;;;;;5007612;28;20457;-74
2022/06/28 14:32:45;;;;;;;2.40;1.00;;;28.60;24.30;;;;;;5006387;28;20959;-74
2022/06/28 14:35:34;;;;;;;3.20;1.20;;;28.60;24.90;;;;;;5005866;28;20452;-74
2022/06/28 14:38:22;;;;;;;3.63;0.93;;;28.50;23.80;;;;;;5002018;28;20437;-74
2022/06/28 14:41:08;;;;;;;2.10;0.90;;;28.50;25.10;;;;;;5006376;28;20461;-73
2022/06/28 14:43:54;;;;;;;2.57;1.00;;;28.60;25.20;;;;;;5007322;28;20448;-74
2022/06/28 14:46:39;;;;;;;1.90;0.70;;;28.60;23.10;;;;;;5005247;28;20512;-73